This is the latest recevied weather packets stored in our database for station/object GW1497. If no packets are shown the sender has not sent any weather packets the latest 10 day(s).
| Time | Temp. | Humidity | Pressure | Rain* | Wind** | Luminosity | Snow |
|---|---|---|---|---|---|---|---|
| 1777613420 | 3.89° C | 99% | 1017.2 hPa | 0 mm | - | - | - |
| 1777605170 | 5.56° C | 99% | 1017.9 hPa | 1.52 mm | - | - | - |
| 1777604801 | 5° C | 99% | 1017.9 hPa | 1.52 mm | - | - | - |
| 1777602278 | 5.56° C | 99% | 1017.9 hPa | 1.52 mm | - | - | - |
| 1777600495 | 6.67° C | 99% | 1017.9 hPa | 1.52 mm | - | - | - |
| 1777598331 | 7.22° C | 98% | 1017.2 hPa | 1.52 mm | - | - | - |
| 1777595807 | 7.22° C | 96% | 1016.9 hPa | 1.52 mm | - | - | - |
| 1777592921 | 8.89° C | 92% | 1016.5 hPa | 1.52 mm | - | - | - |
| 1777590413 | 8.89° C | 93% | 1016.9 hPa | 1.52 mm | - | - | - |
| 1777588951 | 8.89° C | 90% | 1016.9 hPa | 1.52 mm | - | - | - |
| 1777584619 | 10.56° C | 82% | 1016.2 hPa | 1.02 mm | - | - | - |
| 1777583566 | 12.22° C | 72% | 1015.9 hPa | 1.02 mm | - | - | - |
| 1777573462 | 10° C | 75% | 1016.2 hPa | 1.02 mm | - | - | - |
| 1777573122 | 11.11° C | 74% | 1015.9 hPa | 1.02 mm | - | - | - |
| 1777568074 | 10° C | 88% | 1016.2 hPa | 1.02 mm | - | - | - |
| 1777564853 | 8.33° C | 96% | 1016.2 hPa | 1.02 mm | - | - | - |
| 1777564461 | 7.78° C | 95% | 1015.9 hPa | 0.76 mm | - | - | - |
| 1777555118 | 8.89° C | 89% | 1014.9 hPa | 0 mm | - | - | - |
| 1777554031 | 7.78° C | 93% | 1014.5 hPa | 0 mm | - | - | - |
| 1777552218 | 7.78° C | 96% | 1014.5 hPa | 0 mm | - | - | - |
| 1777547553 | 7.22° C | 99% | 1013.5 hPa | 0 mm | - | - | - |
| 1777543972 | 7.78° C | 99% | 1012.8 hPa | 0 mm | - | - | - |
| 1777541793 | 7.78° C | 99% | 1013.5 hPa | 0 mm | - | - | - |
| 1777541092 | 7.78° C | 99% | 1013.5 hPa | 0 mm | - | - | - |
| 1777539636 | 8.33° C | 99% | 1013.8 hPa | 0 mm | - | - | - |
* Rain since midnight (hover to see other rain measurements)
** Current wind speed in m/s (hover to see current wind gust speed)